Time;durP1;ratioP1;P1;durP2;ratioP2;P2;SDS_P1;SDS_P2;PMS_P1;PMS_P2;Temp;Humidity;BMP_temperature;BMP_pressure;BME280_temperature;BME280_humidity;BME280_pressure;Samples;Min_cycle;Max_cycle;Signal;HPM_P1;HPM_P2
2022/04/10 00:00:02;;;;;;;1.13;1.03;;;3.10;99.90;;;;;;5091823;28;20544;-73
2022/04/10 00:02:28;;;;;;;2.43;1.60;;;3.00;99.90;;;;;;5091848;28;20493;-73
2022/04/10 00:04:56;;;;;;;1.63;1.53;;;3.00;99.90;;;;;;5093484;28;20135;-73
2022/04/10 00:07:23;;;;;;;3.40;1.73;;;3.00;99.90;;;;;;5091925;28;20131;-73
2022/04/10 00:09:49;;;;;;;4.07;1.17;;;2.90;99.90;;;;;;5091924;28;20135;-74
2022/04/10 00:12:16;;;;;;;3.03;1.47;;;2.90;99.90;;;;;;5093480;28;20048;-74
2022/04/10 00:14:43;;;;;;;1.33;1.30;;;2.80;99.90;;;;;;5091031;28;20146;-74
2022/04/10 00:17:10;;;;;;;2.27;2.07;;;2.80;99.90;;;;;;5093763;28;20048;-73
2022/04/10 00:19:36;;;;;;;7.70;1.53;;;2.70;99.90;;;;;;5076582;28;20127;-73
2022/04/10 00:22:05;;;;;;;4.50;1.40;;;2.70;99.90;;;;;;5074575;28;20135;-73
2022/04/10 00:24:31;;;;;;;5.33;1.33;;;2.60;99.90;;;;;;5074527;28;20079;-73
2022/04/10 00:26:58;;;;;;;3.03;1.50;;;2.60;99.90;;;;;;5073266;28;20512;-73
2022/04/10 00:29:25;;;;;;;2.57;1.23;;;2.60;99.90;;;;;;5073480;28;20059;-73
2022/04/10 00:31:52;;;;;;;2.67;1.50;;;2.60;99.90;;;;;;5074114;28;20480;-72
2022/04/10 00:34:18;;;;;;;3.00;2.17;;;2.50;99.90;;;;;;5074297;28;20048;-73
2022/04/10 00:36:45;;;;;;;2.37;1.70;;;2.60;99.90;;;;;;5073559;28;20197;-74
2022/04/10 00:39:13;;;;;;;1.10;0.70;;;2.60;99.90;;;;;;5073577;28;20078;-73
2022/04/10 00:41:39;;;;;;;2.40;2.00;;;2.60;99.90;;;;;;5074040;28;20076;-72
2022/04/10 00:44:07;;;;;;;2.33;1.23;;;2.60;99.90;;;;;;5073572;28;20139;-73
2022/04/10 00:46:34;;;;;;;0.93;0.93;;;2.60;99.90;;;;;;5074259;28;20154;-73
2022/04/10 00:49:01;;;;;;;5.60;1.87;;;2.60;99.90;;;;;;5074722;28;20076;-73
2022/04/10 00:51:43;;;;;;;2.13;1.77;;;2.50;99.90;;;;;;5093510;28;20193;-73
2022/04/10 00:54:16;;;;;;;2.73;1.80;;;2.60;99.90;;;;;;5093001;28;20127;-72
2022/04/10 00:56:44;;;;;;;1.97;1.83;;;2.60;99.90;;;;;;5091574;28;20048;-73
2022/04/10 00:59:11;;;;;;;2.73;1.40;;;2.60;99.90;;;;;;5093048;28;20423;-73
2022/04/10 01:01:39;;;;;;;4.63;1.43;;;2.50;99.90;;;;;;5093171;28;20143;-73
2022/04/10 01:04:07;;;;;;;5.43;1.77;;;2.50;99.90;;;;;;5093024;28;20052;-73
2022/04/10 01:06:34;;;;;;;1.87;1.70;;;2.50;99.90;;;;;;5091390;28;20068;-73
2022/04/10 01:09:01;;;;;;;2.60;1.13;;;2.50;99.90;;;;;;5087455;28;20040;-73
2022/04/10 01:11:29;;;;;;;7.07;2.10;;;2.50;99.90;;;;;;5073136;28;20044;-73
2022/04/10 01:13:56;;;;;;;1.87;1.60;;;2.50;99.90;;;;;;5085366;28;20048;-73
2022/04/10 01:16:23;;;;;;;5.40;2.50;;;2.50;99.90;;;;;;5091226;28;20045;-73
2022/04/10 01:18:51;;;;;;;2.63;2.43;;;2.50;99.90;;;;;;5082215;28;20089;-74
2022/04/10 01:21:23;;;;;;;3.30;2.93;;;2.50;99.90;;;;;;5094673;28;20563;-73
2022/04/10 01:23:51;;;;;;;;;;;2.50;99.90;;;;;;5076922;28;20090;-73
2022/04/10 01:26:18;;;;;;;5.37;2.73;;;2.50;99.90;;;;;;5076292;28;20401;-73
2022/04/10 01:28:58;;;;;;;3.20;2.43;;;2.40;99.90;;;;;;5077620;28;20076;-74
2022/04/10 01:31:25;;;;;;;3.67;2.83;;;2.50;99.90;;;;;;5076130;28;20489;-73
2022/04/10 01:33:54;;;;;;;4.17;2.27;;;2.50;99.90;;;;;;5086556;28;20485;-73
2022/04/10 01:36:22;;;;;;;4.17;2.50;;;2.50;99.90;;;;;;5077431;28;20045;-74
2022/04/10 01:38:51;;;;;;;4.50;3.00;;;2.40;99.90;;;;;;5077493;28;20162;-74
2022/04/10 01:41:18;;;;;;;3.77;2.50;;;2.40;99.90;;;;;;5083278;28;20075;-73
2022/04/10 01:43:46;;;;;;;4.40;2.90;;;2.40;99.90;;;;;;5094728;28;20048;-73
2022/04/10 01:46:12;;;;;;;2.97;2.77;;;2.40;99.90;;;;;;5094181;28;20076;-74
2022/04/10 01:48:39;;;;;;;7.60;3.33;;;2.40;99.90;;;;;;5094513;28;20075;-74
2022/04/10 01:51:06;;;;;;;4.43;3.10;;;2.40;99.90;;;;;;5096395;28;20063;-74
2022/04/10 01:53:32;;;;;;;5.23;3.33;;;2.40;99.90;;;;;;5092466;28;20484;-74
2022/04/10 01:56:00;;;;;;;5.50;2.87;;;2.40;99.90;;;;;;5076083;28;20127;-74
2022/04/10 01:58:26;;;;;;;3.50;2.27;;;2.40;99.90;;;;;;5077144;28;20076;-74
2022/04/10 02:00:53;;;;;;;8.90;3.20;;;2.50;99.90;;;;;;5075603;28;20534;-74
2022/04/10 02:03:20;;;;;;;4.07;3.37;;;2.40;99.90;;;;;;5076722;28;20132;-74
2022/04/10 02:05:46;;;;;;;3.50;2.80;;;2.50;99.90;;;;;;5075911;28;20080;-74
2022/04/10 02:08:13;;;;;;;5.20;2.67;;;2.60;99.90;;;;;;5075949;28;20076;-74
2022/04/10 02:10:40;;;;;;;3.80;3.20;;;2.60;99.90;;;;;;5081640;28;20486;-74
2022/04/10 02:13:08;;;;;;;3.77;2.80;;;2.60;99.90;;;;;;5076733;28;20115;-73
2022/04/10 02:15:36;;;;;;;7.40;4.53;;;2.60;99.90;;;;;;5083707;28;20047;-74
2022/04/10 02:18:03;;;;;;;4.60;2.70;;;2.60;99.90;;;;;;5095390;28;20043;-74
2022/04/10 02:20:29;;;;;;;3.37;3.00;;;2.60;99.90;;;;;;5094193;28;20466;-73
2022/04/10 02:22:56;;;;;;;5.53;3.20;;;2.60;99.90;;;;;;5094952;28;20079;-73
2022/04/10 02:25:22;;;;;;;4.83;3.80;;;2.60;99.90;;;;;;5094876;28;20131;-73
2022/04/10 02:27:49;;;;;;;6.33;3.63;;;2.60;99.90;;;;;;5095400;28;20074;-73
2022/04/10 02:30:18;;;;;;;5.13;3.37;;;2.50;99.90;;;;;;5093375;28;20143;-73
2022/04/10 02:32:45;;;;;;;7.80;3.27;;;2.50;99.90;;;;;;5095809;28;20044;-73
2022/04/10 02:35:12;;;;;;;4.13;2.33;;;2.50;99.90;;;;;;5093776;28;20102;-73
2022/04/10 02:37:39;;;;;;;4.13;2.53;;;2.50;99.90;;;;;;5085355;28;20132;-73
2022/04/10 02:40:07;;;;;;;5.60;3.40;;;2.50;99.90;;;;;;5075012;28;20477;-72
2022/04/10 02:42:36;;;;;;;3.97;2.40;;;2.50;99.90;;;;;;5076182;28;20048;-73
2022/04/10 02:45:03;;;;;;;6.97;2.90;;;2.60;99.90;;;;;;5075791;28;20474;-73
2022/04/10 02:47:31;;;;;;;2.60;2.37;;;2.60;99.90;;;;;;5075154;28;20079;-73
2022/04/10 02:50:39;;;;;;;4.80;2.70;;;2.50;99.90;;;;;;5075032;28;20443;-74
2022/04/10 02:53:06;;;;;;;3.10;2.40;;;2.60;99.90;;;;;;5075908;28;20083;-74
2022/04/10 02:55:32;;;;;;;4.10;2.87;;;2.50;99.90;;;;;;5075647;28;20490;-74
2022/04/10 02:57:59;;;;;;;4.00;2.37;;;2.60;99.90;;;;;;5075021;28;20135;-74
2022/04/10 03:00:25;;;;;;;4.33;2.27;;;2.60;99.90;;;;;;5075101;28;20082;-73
2022/04/10 03:02:53;;;;;;;8.33;2.57;;;2.60;99.90;;;;;;5075593;28;20045;-74
2022/04/10 03:05:20;;;;;;;2.77;1.77;;;2.70;99.90;;;;;;5080010;28;20043;-73
2022/04/10 03:07:47;;;;;;;7.77;3.37;;;2.80;99.90;;;;;;5094424;28;20102;-73
2022/04/10 03:10:13;;;;;;;2.33;2.07;;;2.80;99.90;;;;;;5094832;28;20147;-73
2022/04/10 03:12:40;;;;;;;5.60;3.00;;;2.90;99.90;;;;;;5092606;28;20589;-74
2022/04/10 03:15:08;;;;;;;6.37;2.43;;;2.90;99.90;;;;;;5085278;28;20079;-73
2022/04/10 03:17:34;;;;;;;3.80;3.20;;;2.90;99.90;;;;;;5092480;28;20131;-72
2022/04/10 03:20:02;;;;;;;4.93;2.90;;;3.00;99.90;;;;;;5079047;28;20489;-74
2022/04/10 03:22:29;;;;;;;4.40;2.97;;;3.00;99.90;;;;;;5079715;28;20062;-72
2022/04/10 03:24:55;;;;;;;4.97;2.50;;;3.10;99.90;;;;;;5092671;28;20127;-73
2022/04/10 03:27:22;;;;;;;7.03;3.93;;;3.10;99.90;;;;;;5092383;28;20122;-73
2022/04/10 03:29:48;;;;;;;3.20;2.83;;;3.10;99.90;;;;;;5094091;28;20091;-74
2022/04/10 03:32:15;;;;;;;14.03;2.70;;;3.10;99.90;;;;;;5094067;28;20071;-73
2022/04/10 03:34:41;;;;;;;4.83;2.53;;;3.20;99.90;;;;;;5077204;28;20087;-72
2022/04/10 03:37:09;;;;;;;3.17;2.63;;;3.20;99.90;;;;;;5074039;28;20044;-73
2022/04/10 03:39:36;;;;;;;6.27;2.33;;;3.10;99.90;;;;;;5074655;28;20052;-73
2022/04/10 03:42:02;;;;;;;3.90;2.80;;;3.20;99.90;;;;;;5073581;28;20083;-73
2022/04/10 03:44:29;;;;;;;6.20;2.37;;;3.20;99.90;;;;;;5075012;28;20109;-74
2022/04/10 03:46:55;;;;;;;4.33;2.40;;;3.20;99.90;;;;;;5074375;28;20056;-74
2022/04/10 03:49:22;;;;;;;3.20;2.90;;;3.20;99.90;;;;;;5074995;28;20131;-73
2022/04/10 03:51:49;;;;;;;4.53;2.47;;;3.20;99.90;;;;;;5074135;28;20076;-72
2022/04/10 03:54:16;;;;;;;3.77;1.93;;;3.20;99.90;;;;;;5073972;28;20087;-73
2022/04/10 03:56:43;;;;;;;5.53;2.07;;;3.20;99.90;;;;;;5074874;28;20040;-73
2022/04/10 03:59:09;;;;;;;1.63;1.53;;;3.30;99.90;;;;;;5074908;28;20068;-73
2022/04/10 04:01:36;;;;;;;3.07;1.60;;;3.30;99.90;;;;;;5081719;28;20067;-73
2022/04/10 04:04:02;;;;;;;3.43;1.97;;;3.20;99.90;;;;;;5094299;28;20086;-73
2022/04/10 04:06:29;;;;;;;2.37;1.77;;;3.20;99.90;;;;;;5092537;28;20079;-74
2022/04/10 04:08:55;;;;;;;5.07;2.57;;;3.30;99.90;;;;;;5093031;28;20130;-73
2022/04/10 04:11:23;;;;;;;6.57;2.30;;;3.20;99.90;;;;;;5077520;28;20473;-73
2022/04/10 04:13:50;;;;;;;11.33;2.90;;;3.30;99.90;;;;;;5076894;28;20068;-73
2022/04/10 04:16:16;;;;;;;6.63;2.17;;;3.30;99.90;;;;;;5092029;28;20105;-73
2022/04/10 04:18:43;;;;;;;2.17;2.00;;;3.30;99.90;;;;;;5086813;28;20079;-73
2022/04/10 04:21:09;;;;;;;4.67;2.50;;;3.40;99.90;;;;;;5073343;28;20131;-73
2022/04/10 04:23:36;;;;;;;5.57;2.43;;;3.30;99.90;;;;;;5073563;28;20087;-73
2022/04/10 04:26:02;;;;;;;8.63;3.37;;;3.40;99.90;;;;;;5073511;28;20134;-73
2022/04/10 04:28:32;;;;;;;7.43;2.87;;;3.30;99.90;;;;;;5085024;28;20071;-74
2022/04/10 04:30:58;;;;;;;6.33;2.23;;;3.30;99.90;;;;;;5073096;28;20593;-74
2022/04/10 04:33:25;;;;;;;2.67;1.93;;;3.30;99.90;;;;;;5073300;28;20131;-73
2022/04/10 04:35:51;;;;;;;3.27;2.37;;;3.30;99.90;;;;;;5073613;28;20074;-74
2022/04/10 04:38:18;;;;;;;3.13;2.50;;;3.40;99.90;;;;;;5093560;28;20143;-73
2022/04/10 04:40:44;;;;;;;4.83;2.20;;;3.40;99.90;;;;;;5091744;28;20130;-73
2022/04/10 04:43:11;;;;;;;6.27;2.77;;;3.40;99.90;;;;;;5093159;28;20044;-73
2022/04/10 04:45:39;;;;;;;3.60;2.30;;;3.40;99.90;;;;;;5091646;28;20482;-73
2022/04/10 04:48:06;;;;;;;9.97;2.80;;;3.40;99.90;;;;;;5076208;28;20068;-73
2022/04/10 04:50:32;;;;;;;3.73;1.87;;;3.40;99.90;;;;;;5074059;28;20462;-73
2022/04/10 04:52:59;;;;;;;3.73;2.73;;;3.40;99.90;;;;;;5074717;28;20079;-74
2022/04/10 04:55:26;;;;;;;4.83;2.37;;;3.40;99.90;;;;;;5077258;28;20044;-73
2022/04/10 04:57:52;;;;;;;2.73;2.23;;;3.40;99.90;;;;;;5091826;28;20541;-73
2022/04/10 05:00:19;;;;;;;8.83;3.20;;;3.30;99.90;;;;;;5095856;28;20084;-73
2022/04/10 05:02:47;;;;;;;8.20;2.60;;;3.30;99.90;;;;;;5096264;28;20196;-72
2022/04/10 05:05:14;;;;;;;3.73;1.93;;;3.30;99.90;;;;;;5097119;28;20086;-73
2022/04/10 05:07:40;;;;;;;4.63;2.50;;;3.30;99.90;;;;;;5081558;28;20076;-72
2022/04/10 05:10:07;;;;;;;5.13;2.57;;;3.40;99.90;;;;;;5076542;28;20553;-73
2022/04/10 05:12:34;;;;;;;4.20;2.37;;;3.40;99.90;;;;;;5087923;28;20076;-73
2022/04/10 05:15:04;;;;;;;2.10;1.90;;;3.50;99.90;;;;;;5087804;28;20053;-73
2022/04/10 05:17:30;;;;;;;2.53;1.60;;;3.50;99.90;;;;;;5076829;28;20059;-73
2022/04/10 05:19:58;;;;;;;9.23;2.57;;;3.50;99.90;;;;;;5077741;28;20131;-74
2022/04/10 05:22:25;;;;;;;8.50;2.20;;;3.50;99.90;;;;;;5078553;28;20078;-73
2022/04/10 05:24:51;;;;;;;3.03;2.20;;;3.50;99.90;;;;;;5077644;28;20094;-73
2022/04/10 05:27:18;;;;;;;8.53;1.90;;;3.50;99.90;;;;;;5076644;28;20135;-72
2022/04/10 05:29:45;;;;;;;2.50;1.27;;;3.60;99.90;;;;;;5084795;28;20036;-74
2022/04/10 05:32:11;;;;;;;3.23;1.90;;;3.60;99.90;;;;;;5094948;28;20076;-74
2022/04/10 05:34:38;;;;;;;4.87;2.43;;;3.70;99.90;;;;;;5077261;28;20619;-72
2022/04/10 05:37:06;;;;;;;4.07;2.77;;;3.70;99.90;;;;;;5076490;28;20076;-72
2022/04/10 05:39:32;;;;;;;7.43;2.10;;;3.70;99.90;;;;;;5077534;28;20072;-73
2022/04/10 05:41:59;;;;;;;4.03;2.47;;;3.80;99.90;;;;;;5076539;28;20076;-74
2022/04/10 05:44:26;;;;;;;2.10;1.47;;;3.90;99.90;;;;;;5078136;28;20530;-73
2022/04/10 05:46:52;;;;;;;4.97;2.30;;;3.80;99.90;;;;;;5075954;28;20139;-73
2022/04/10 05:49:19;;;;;;;6.93;1.93;;;3.80;99.90;;;;;;5091836;28;20529;-74
2022/04/10 05:51:45;;;;;;;3.23;1.90;;;3.80;99.90;;;;;;5094544;28;20044;-74
2022/04/10 05:54:14;;;;;;;3.80;1.97;;;3.80;99.90;;;;;;5094637;28;20072;-74
2022/04/10 05:56:40;;;;;;;8.20;2.57;;;3.90;99.90;;;;;;5096050;28;20052;-73
2022/04/10 05:59:07;;;;;;;3.23;1.60;;;4.00;99.90;;;;;;5096331;28;20052;-73
2022/04/10 06:01:34;;;;;;;11.00;1.67;;;4.00;99.90;;;;;;5079141;28;20073;-73
2022/04/10 06:04:00;;;;;;;8.80;2.30;;;4.10;99.90;;;;;;5093972;28;20079;-73
2022/04/10 06:06:27;;;;;;;4.07;1.77;;;4.10;99.90;;;;;;5095769;28;20173;-73
2022/04/10 06:08:53;;;;;;;5.10;2.30;;;4.10;99.90;;;;;;5096111;28;20097;-73
2022/04/10 06:11:21;;;;;;;2.87;1.93;;;4.30;99.90;;;;;;5094323;28;20082;-73
2022/04/10 06:13:47;;;;;;;4.80;1.47;;;4.30;99.90;;;;;;5096023;28;20082;-73
2022/04/10 06:16:14;;;;;;;3.50;1.70;;;4.30;99.90;;;;;;5094064;28;20134;-74
2022/04/10 06:18:40;;;;;;;11.77;3.30;;;4.40;99.90;;;;;;5094154;28;20119;-74
2022/04/10 06:21:07;;;;;;;8.60;3.23;;;4.50;99.90;;;;;;5082001;28;20132;-73
2022/04/10 06:23:34;;;;;;;1.67;1.43;;;4.60;99.90;;;;;;5089302;28;20476;-73
2022/04/10 06:26:00;;;;;;;3.83;1.77;;;4.70;99.90;;;;;;5094924;28;20083;-75
2022/04/10 06:28:30;;;;;;;1.30;1.20;;;4.70;99.90;;;;;;5083942;28;20059;-73
2022/04/10 06:30:56;;;;;;;8.53;2.33;;;4.50;99.90;;;;;;5090746;28;21526;-73
2022/04/10 06:33:23;;;;;;;2.93;2.13;;;4.40;99.90;;;;;;5081773;28;20064;-73
2022/04/10 06:35:50;;;;;;;8.50;2.70;;;4.40;99.90;;;;;;5080156;28;20051;-73
2022/04/10 06:38:16;;;;;;;10.97;2.23;;;4.50;99.90;;;;;;5095148;28;20048;-73
2022/04/10 06:40:43;;;;;;;2.00;1.60;;;4.60;99.90;;;;;;5084507;28;20076;-73
2022/04/10 06:43:10;;;;;;;3.67;1.60;;;4.60;99.90;;;;;;5075191;28;20053;-73
2022/04/10 06:45:38;;;;;;;4.67;2.40;;;4.60;99.90;;;;;;5090717;28;20472;-73
2022/04/10 06:48:06;;;;;;;5.37;1.67;;;4.70;99.90;;;;;;5092767;28;20076;-73
2022/04/10 06:50:32;;;;;;;4.23;2.40;;;4.70;99.90;;;;;;5075538;28;20102;-73
2022/04/10 06:52:59;;;;;;;3.50;1.63;;;4.80;99.90;;;;;;5074554;28;20509;-75
2022/04/10 06:55:26;;;;;;;1.90;1.70;;;4.90;99.90;;;;;;5088512;28;20135;-73
2022/04/10 06:57:52;;;;;;;2.33;1.73;;;4.90;99.90;;;;;;5092822;28;20471;-73
2022/04/10 07:00:19;;;;;;;3.20;1.87;;;4.90;99.90;;;;;;5092920;28;20090;-74
2022/04/10 07:02:48;;;;;;;4.60;1.90;;;4.90;99.90;;;;;;5082259;28;20177;-75
2022/04/10 07:05:15;;;;;;;3.47;2.03;;;4.90;99.90;;;;;;5080386;28;20052;-74
2022/04/10 07:07:41;;;;;;;3.97;2.10;;;5.10;99.90;;;;;;5075527;28;20079;-74
2022/04/10 07:10:08;;;;;;;3.90;1.80;;;5.10;99.90;;;;;;5074540;28;20158;-73
2022/04/10 07:12:35;;;;;;;5.23;2.07;;;5.30;99.90;;;;;;5074429;28;20144;-75
2022/04/10 07:15:02;;;;;;;6.57;3.17;;;5.30;99.90;;;;;;5076506;28;20052;-75
2022/04/10 07:17:29;;;;;;;4.83;2.10;;;5.40;99.90;;;;;;5093166;28;20071;-74
2022/04/10 07:19:57;;;;;;;5.47;2.03;;;5.40;99.90;;;;;;5092654;28;20044;-73
2022/04/10 07:25:09;;;;;;;4.00;1.97;;;5.40;99.90;;;;;;5092219;28;20421;-75
2022/04/10 07:27:35;;;;;;;5.93;1.70;;;5.70;99.90;;;;;;5090653;28;20068;-76
2022/04/10 07:30:02;;;;;;;4.73;1.63;;;5.90;99.90;;;;;;5075038;28;20072;-75
2022/04/10 07:32:29;;;;;;;10.47;3.23;;;6.10;99.90;;;;;;5083924;28;20517;-73
2022/04/10 07:34:57;;;;;;;3.93;2.17;;;6.30;99.90;;;;;;5093724;28;20492;-73
2022/04/10 07:37:23;;;;;;;6.27;1.60;;;6.50;99.90;;;;;;5094219;28;20071;-74
2022/04/10 07:39:50;;;;;;;2.63;1.70;;;6.60;99.90;;;;;;5094102;28;20146;-72
2022/04/10 07:42:16;;;;;;;6.37;2.07;;;6.70;99.90;;;;;;5094162;28;20075;-73
2022/04/10 07:44:43;;;;;;;3.23;1.80;;;6.60;99.90;;;;;;5094023;28;20135;-73
2022/04/10 07:47:27;;;;;;;3.07;2.00;;;6.30;99.90;;;;;;5094110;28;20091;-74
2022/04/10 07:49:54;;;;;;;5.77;1.90;;;6.10;99.90;;;;;;5094152;28;20059;-74
2022/04/10 07:52:22;;;;;;;2.30;1.57;;;6.20;99.90;;;;;;5093952;28;20044;-74
2022/04/10 07:54:49;;;;;;;6.60;2.10;;;6.30;99.90;;;;;;5093616;28;20513;-74
2022/04/10 07:57:17;;;;;;;1.63;1.40;;;6.70;99.90;;;;;;5093831;28;20055;-74
2022/04/10 07:59:43;;;;;;;2.33;1.20;;;7.00;99.90;;;;;;5093899;28;20052;-73
2022/04/10 08:02:10;;;;;;;1.53;1.43;;;7.30;99.90;;;;;;5093696;28;20052;-74
2022/04/10 08:04:37;;;;;;;3.07;1.93;;;7.30;99.90;;;;;;5093851;28;20131;-73
2022/04/10 08:07:04;;;;;;;2.80;1.40;;;7.10;99.90;;;;;;5093538;28;20130;-73
2022/04/10 08:09:32;;;;;;;2.27;1.57;;;6.80;99.90;;;;;;5093754;28;20047;-73
2022/04/10 08:12:00;;;;;;;1.70;1.57;;;6.70;99.90;;;;;;5093129;28;20513;-74
2022/04/10 08:14:26;;;;;;;7.07;4.20;;;6.40;99.90;;;;;;5093616;28;20097;-73
2022/04/10 08:16:53;;;;;;;3.40;2.87;;;6.40;99.90;;;;;;5093278;28;20502;-74
2022/04/10 08:19:20;;;;;;;4.37;1.83;;;6.60;99.90;;;;;;5093592;28;20085;-73
2022/04/10 08:21:46;;;;;;;1.87;1.57;;;6.50;99.90;;;;;;5093539;28;20059;-75
2022/04/10 08:24:13;;;;;;;3.03;1.70;;;6.50;99.90;;;;;;5093669;28;20083;-73
2022/04/10 08:26:41;;;;;;;7.23;2.40;;;6.20;99.90;;;;;;5093246;28;20135;-75
2022/04/10 08:29:07;;;;;;;3.67;1.20;;;6.30;99.90;;;;;;5093351;28;20090;-74
2022/04/10 08:31:34;;;;;;;1.83;1.30;;;6.20;99.90;;;;;;5093064;28;20047;-73
2022/04/10 08:34:00;;;;;;;8.57;2.90;;;6.20;99.90;;;;;;5093512;28;20083;-73
2022/04/10 08:36:27;;;;;;;5.27;2.90;;;6.10;99.90;;;;;;5093306;28;20075;-74
2022/04/10 08:38:54;;;;;;;2.87;2.63;;;6.10;99.90;;;;;;5093331;28;20048;-74
2022/04/10 08:41:23;;;;;;;3.10;1.53;;;6.00;99.90;;;;;;5093972;28;20131;-74
2022/04/10 08:43:53;;;;;;;3.00;1.97;;;6.00;99.90;;;;;;5095361;28;20102;-73
2022/04/10 08:46:20;;;;;;;5.53;2.53;;;6.20;99.90;;;;;;5093711;28;20394;-72
2022/04/10 08:48:49;;;;;;;3.00;1.43;;;6.50;99.90;;;;;;5093386;28;20097;-74
2022/04/10 08:51:15;;;;;;;4.73;1.77;;;6.50;99.90;;;;;;5093245;28;20071;-73
2022/04/10 08:53:43;;;;;;;7.80;1.97;;;7.40;99.90;;;;;;5093413;28;20076;-74
2022/04/10 08:56:10;;;;;;;3.03;1.25;;;8.50;99.90;;;;;;5093434;28;20533;-73
2022/04/10 08:58:36;;;;;;;4.18;1.67;;;9.00;99.90;;;;;;5093400;28;20075;-73
2022/04/10 09:01:04;;;;;;;6.05;1.65;;;9.80;99.90;;;;;;5093544;28;20131;-73
2022/04/10 09:03:31;;;;;;;4.65;1.63;;;10.60;99.90;;;;;;5093177;28;20075;-75
2022/04/10 09:06:03;;;;;;;3.65;1.40;;;10.10;99.00;;;;;;5093013;28;20044;-74
2022/04/10 09:08:29;;;;;;;2.92;1.60;;;10.10;99.20;;;;;;5093383;28;20083;-74
2022/04/10 09:10:58;;;;;;;9.98;1.67;;;10.00;99.30;;;;;;5093044;28;20528;-73
2022/04/10 09:13:26;;;;;;;3.70;2.05;;;10.00;99.00;;;;;;5093286;28;20052;-75
2022/04/10 09:15:53;;;;;;;2.58;1.20;;;9.90;99.90;;;;;;5093248;28;20052;-74
2022/04/10 09:18:21;;;;;;;6.53;1.58;;;9.90;99.40;;;;;;5093342;28;20090;-74
2022/04/10 09:21:07;;;;;;;5.05;2.22;;;10.90;98.40;;;;;;5093522;28;20056;-74
2022/04/10 09:23:33;;;;;;;9.57;2.17;;;10.80;95.50;;;;;;5093155;28;20048;-76
2022/04/10 09:26:00;;;;;;;7.95;2.20;;;10.00;96.10;;;;;;5093005;28;20125;-74
2022/04/10 09:28:41;;;;;;;8.35;1.95;;;9.50;97.30;;;;;;5093165;28;20131;-74
2022/04/10 09:31:32;;;;;;;3.35;1.70;;;9.10;98.60;;;;;;5092626;28;20060;-74
2022/04/10 09:34:02;;;;;;;5.72;2.58;;;8.70;99.90;;;;;;5093285;28;20084;-74
2022/04/10 09:36:47;;;;;;;2.92;1.75;;;7.90;99.90;;;;;;5092841;28;20069;-75
2022/04/10 09:39:16;;;;;;;4.22;1.48;;;7.50;99.90;;;;;;5080638;28;20131;-74
2022/04/10 09:41:43;;;;;;;5.30;1.95;;;7.60;99.90;;;;;;5096474;28;20082;-74
2022/04/10 09:44:19;;;;;;;6.35;1.80;;;8.40;99.90;;;;;;5096441;28;20075;-73
2022/04/10 09:46:57;;;;;;;4.63;1.95;;;9.60;99.90;;;;;;5096311;28;20040;-74
2022/04/10 09:49:31;;;;;;;6.32;1.65;;;11.20;99.90;;;;;;5096279;28;20132;-73
2022/04/10 09:52:02;;;;;;;3.28;2.30;;;11.90;98.50;;;;;;5095984;28;20052;-73
2022/04/10 09:54:34;;;;;;;1.85;1.40;;;11.90;95.20;;;;;;5096016;28;20454;-73
2022/04/10 09:57:03;;;;;;;4.35;1.90;;;12.40;94.60;;;;;;5095747;28;20394;-73
2022/04/10 09:59:36;;;;;;;2.67;1.77;;;12.30;91.40;;;;;;5095982;28;20062;-75
2022/04/10 10:02:04;;;;;;;4.80;1.95;;;13.10;88.80;;;;;;5096115;28;20079;-74
2022/04/10 10:04:34;;;;;;;3.10;1.50;;;12.90;86.70;;;;;;5096066;28;20134;-73
2022/04/10 10:07:04;;;;;;;1.15;1.02;;;12.30;86.50;;;;;;5095891;28;20075;-74
2022/04/10 10:09:32;;;;;;;8.63;2.40;;;11.50;87.10;;;;;;5096125;28;20083;-74
2022/04/10 10:12:00;;;;;;;4.68;2.33;;;11.70;87.60;;;;;;5096030;28;20052;-74
2022/04/10 10:14:29;;;;;;;4.70;1.80;;;10.80;89.70;;;;;;5096270;28;20226;-74
2022/04/10 10:16:57;;;;;;;1.15;1.02;;;10.50;92.20;;;;;;5096234;28;20072;-74
2022/04/10 10:19:25;;;;;;;4.10;1.33;;;9.90;95.60;;;;;;5096010;28;20043;-74
2022/04/10 10:21:53;;;;;;;2.80;1.33;;;10.50;97.30;;;;;;5095774;28;20140;-73
2022/04/10 10:24:23;;;;;;;4.70;1.63;;;9.70;99.90;;;;;;5095651;28;20516;-74
2022/04/10 10:27:04;;;;;;;7.32;2.03;;;9.20;99.90;;;;;;5095562;28;20443;-74
2022/04/10 10:29:57;;;;;;;3.58;1.58;;;9.00;99.90;;;;;;5095456;28;20106;-74
2022/04/10 10:32:41;;;;;;;3.83;1.48;;;9.00;99.90;;;;;;5095676;28;20052;-73
2022/04/10 10:35:10;;;;;;;4.40;1.40;;;10.50;99.90;;;;;;5095667;28;20105;-74
2022/04/10 10:37:52;;;;;;;5.25;2.38;;;12.30;99.00;;;;;;5095453;28;20498;-73
2022/04/10 10:40:20;;;;;;;3.85;2.65;;;13.50;92.80;;;;;;5095625;28;20055;-74
2022/04/10 10:42:49;;;;;;;4.75;2.42;;;13.80;87.80;;;;;;5094583;28;20505;-75
2022/04/10 10:45:34;;;;;;;4.88;2.83;;;14.00;87.10;;;;;;5094672;28;20430;-73
2022/04/10 10:48:42;;;;;;;4.32;2.22;;;12.80;85.70;;;;;;5094159;28;20052;-73
2022/04/10 10:51:43;;;;;;;4.90;1.95;;;13.10;89.30;;;;;;5069695;28;20088;-74
2022/04/10 10:54:15;;;;;;;2.47;1.33;;;14.80;75.80;;;;;;5094382;28;20074;-73
2022/04/10 10:56:46;;;;;;;4.80;2.17;;;15.70;72.70;;;;;;5094543;28;20071;-74
2022/04/10 10:59:35;;;;;;;9.60;3.20;;;14.90;72.20;;;;;;5094765;28;20136;-73
2022/04/10 11:02:04;;;;;;;2.35;1.55;;;13.50;72.50;;;;;;5088291;28;20051;-74
2022/04/10 11:04:34;;;;;;;3.72;1.55;;;15.10;72.50;;;;;;5094353;28;20044;-73
2022/04/10 11:07:13;;;;;;;1.75;1.08;;;15.70;70.10;;;;;;5094224;28;20040;-74
2022/04/10 11:09:51;;;;;;;4.70;1.38;;;15.00;65.20;;;;;;5094346;28;20052;-76
2022/04/10 11:12:21;;;;;;;0.95;0.77;;;13.50;67.50;;;;;;5094685;28;20113;-74
2022/04/10 11:14:50;;;;;;;1.50;1.40;;;12.90;68.70;;;;;;5094572;28;20048;-74
2022/04/10 11:17:18;;;;;;;1.70;0.95;;;13.00;69.90;;;;;;5094282;28;20040;-73
2022/04/10 11:19:47;;;;;;;2.88;0.93;;;13.20;69.40;;;;;;5094530;28;20072;-73
2022/04/10 11:22:18;;;;;;;3.22;1.38;;;13.40;70.40;;;;;;5094055;28;20048;-73
2022/04/10 11:24:45;;;;;;;1.55;0.95;;;13.00;70.50;;;;;;5094105;28;20239;-73
2022/04/10 11:27:14;;;;;;;2.55;1.02;;;12.20;70.20;;;;;;5093767;28;20573;-74
2022/04/10 11:29:49;;;;;;;5.65;1.35;;;12.00;72.30;;;;;;5094286;28;20086;-73
2022/04/10 11:32:18;;;;;;;9.05;1.33;;;11.60;72.70;;;;;;5094970;28;20105;-74
2022/04/10 11:34:44;;;;;;;4.22;1.50;;;12.00;72.70;;;;;;5094369;28;20406;-74
2022/04/10 11:37:21;;;;;;;4.75;1.35;;;12.00;71.20;;;;;;5094659;28;20075;-73
2022/04/10 11:39:50;;;;;;;5.90;3.10;;;11.40;70.40;;;;;;5095234;28;20064;-76
2022/04/10 11:42:18;;;;;;;2.95;1.75;;;11.60;74.40;;;;;;5094726;28;20056;-74
2022/04/10 11:44:47;;;;;;;3.95;2.95;;;11.80;74.40;;;;;;5094069;28;20081;-73
2022/04/10 11:47:15;;;;;;;4.75;1.92;;;11.40;74.50;;;;;;5093796;28;20080;-74
2022/04/10 11:49:51;;;;;;;6.03;2.25;;;11.00;75.10;;;;;;5093961;28;20051;-74
2022/04/10 11:52:19;;;;;;;5.93;1.77;;;10.70;78.00;;;;;;5093957;28;20401;-74
2022/04/10 11:54:46;;;;;;;4.80;2.53;;;10.20;81.20;;;;;;5094020;28;20085;-74
2022/04/10 11:57:12;;;;;;;3.35;1.75;;;9.90;85.50;;;;;;5094338;28;20087;-73
2022/04/10 11:59:42;;;;;;;6.25;2.70;;;9.50;87.90;;;;;;5093995;28;20051;-72
2022/04/10 12:02:10;;;;;;;2.90;1.60;;;9.40;91.10;;;;;;5093542;28;20055;-73
2022/04/10 12:04:38;;;;;;;4.93;2.15;;;9.40;93.90;;;;;;5093791;28;20048;-73
2022/04/10 12:07:13;;;;;;;2.25;1.98;;;9.00;94.50;;;;;;5093817;28;20079;-72
2022/04/10 12:09:40;;;;;;;2.70;1.20;;;9.00;95.80;;;;;;5093624;28;20055;-73
2022/04/10 12:12:07;;;;;;;5.05;1.67;;;8.60;96.20;;;;;;5093644;28;20410;-72
2022/04/10 12:14:34;;;;;;;1.48;0.98;;;10.50;98.30;;;;;;5093621;28;20085;-73
2022/04/10 12:17:02;;;;;;;5.93;3.28;;;12.40;95.10;;;;;;5093654;28;20052;-73
2022/04/10 12:19:34;;;;;;;3.67;1.58;;;13.90;88.70;;;;;;5093496;28;20048;-73
2022/04/10 12:22:02;;;;;;;3.40;1.98;;;14.30;81.80;;;;;;5093392;28;20054;-72
2022/04/10 12:24:28;;;;;;;2.95;1.60;;;15.30;81.90;;;;;;5093332;28;20076;-73
2022/04/10 12:26:56;;;;;;;3.35;1.85;;;13.70;77.90;;;;;;5093302;28;20083;-74
2022/04/10 12:29:23;;;;;;;3.47;1.63;;;12.90;83.00;;;;;;5093547;28;20131;-72
2022/04/10 12:31:54;;;;;;;4.15;1.92;;;12.00;82.30;;;;;;5093624;28;20139;-72
2022/04/10 12:34:22;;;;;;;4.57;2.15;;;11.10;86.30;;;;;;5093183;28;20052;-74
2022/04/10 12:36:50;;;;;;;7.20;1.85;;;11.00;89.50;;;;;;5093282;28;20075;-73
2022/04/10 12:39:27;;;;;;;3.25;2.58;;;10.90;88.80;;;;;;5092871;28;20052;-74
2022/04/10 12:42:03;;;;;;;6.10;2.33;;;11.20;90.70;;;;;;5093002;28;20055;-74
2022/04/10 12:44:30;;;;;;;7.50;3.13;;;11.80;90.20;;;;;;5092888;28;20048;-75
2022/04/10 12:46:57;;;;;;;6.20;2.50;;;11.70;85.90;;;;;;5093066;28;20075;-73
2022/04/10 12:49:25;;;;;;;4.50;2.08;;;11.70;84.90;;;;;;5092998;28;20135;-74
2022/04/10 12:51:54;;;;;;;9.02;2.97;;;11.50;83.90;;;;;;5092995;28;20066;-73
2022/04/10 12:54:34;;;;;;;2.88;2.10;;;11.30;84.40;;;;;;5093065;28;20048;-73
2022/04/10 12:57:00;;;;;;;6.78;2.20;;;11.10;84.50;;;;;;5093191;28;20076;-72
2022/04/10 12:59:40;;;;;;;4.60;1.83;;;11.20;86.60;;;;;;5093134;28;20082;-73
2022/04/10 13:02:11;;;;;;;2.88;1.70;;;11.40;84.60;;;;;;5093050;28;20068;-74
2022/04/10 13:04:39;;;;;;;2.77;1.97;;;11.30;81.90;;;;;;5093013;28;20062;-74